Time;durP1;ratioP1;P1;durP2;ratioP2;P2;SDS_P1;SDS_P2;PMS_P1;PMS_P2;Temp;Humidity;BMP_temperature;BMP_pressure;BME280_temperature;BME280_humidity;BME280_pressure;Samples;Min_cycle;Max_cycle;Signal;HPM_P1;HPM_P2
2024/01/07 00:03:10;;;;;;;4.47;2.20;;;;;;;-3.41;100.00;100992.37;5090165;57;1138810;-78
2024/01/07 00:08:16;;;;;;;7.43;2.40;;;;;;;-3.44;100.00;100988.52;5054785;58;1138505;-78
2024/01/07 00:13:21;;;;;;;3.58;2.00;;;;;;;-3.49;100.00;100991.59;5064962;58;1138546;-78
2024/01/07 00:18:27;;;;;;;8.00;3.40;;;;;;;-3.52;100.00;100993.80;5014815;58;1138767;-78
2024/01/07 00:23:33;;;;;;;6.93;3.17;;;;;;;-3.53;100.00;100993.82;5014768;58;1138669;-78
2024/01/07 00:28:38;;;;;;;7.17;3.08;;;;;;;-3.52;100.00;100993.80;5043407;57;1138858;-78
2024/01/07 00:33:44;;;;;;;5.40;2.90;;;;;;;-3.52;100.00;100990.37;5050132;58;1139089;-78
2024/01/07 00:38:50;;;;;;;6.60;3.23;;;;;;;-3.57;100.00;100990.41;5090141;58;1138776;-78
2024/01/07 00:43:55;;;;;;;8.67;2.90;;;;;;;-3.70;100.00;100997.91;4949784;58;1139141;-78
2024/01/07 00:49:01;;;;;;;5.10;2.60;;;;;;;-3.78;100.00;101006.16;4987275;58;1138514;-78
2024/01/07 00:54:06;;;;;;;6.50;2.87;;;;;;;-3.81;100.00;101012.65;4974247;58;1138911;-78
2024/01/07 00:59:12;;;;;;;5.47;3.27;;;;;;;-3.84;100.00;101029.50;4999936;58;1138471;-79
2024/01/07 01:04:19;;;;;;;7.70;3.30;;;;;;;-3.86;100.00;101033.39;5011013;58;1138622;-78
2024/01/07 01:09:25;;;;;;;7.62;3.80;;;;;;;-3.94;100.00;101034.75;5065811;57;1138410;-78
2024/01/07 01:14:30;;;;;;;6.67;2.80;;;;;;;-3.94;100.00;101039.91;5089748;57;1138462;-78
2024/01/07 01:19:36;;;;;;;7.47;3.37;;;;;;;-3.97;100.00;101038.65;5057597;58;1138917;-78
2024/01/07 01:24:44;;;;;;;12.37;3.50;;;;;;;-4.04;100.00;101042.18;5036314;58;1139123;-78
2024/01/07 01:29:49;;;;;;;7.13;3.50;;;;;;;-4.16;100.00;101055.65;5010340;57;1140587;-78
2024/01/07 01:34:54;;;;;;;4.80;2.43;;;;;;;-4.28;100.00;101050.98;5001343;57;1138390;-78
2024/01/07 01:40:00;;;;;;;11.60;3.80;;;;;;;-4.38;100.00;101044.63;5046923;57;1138974;-78
2024/01/07 01:45:06;;;;;;;7.77;3.20;;;;;;;-4.45;100.00;101052.02;4967027;59;1140878;-78
2024/01/07 01:50:13;;;;;;;6.03;3.10;;;;;;;-4.48;100.00;101058.06;4970028;59;1138759;-78
2024/01/07 01:55:19;;;;;;;8.30;2.87;;;;;;;-4.46;100.00;101065.36;5002613;58;1139306;-78
2024/01/07 02:00:26;;;;;;;6.87;3.53;;;;;;;-4.48;100.00;101070.11;4952155;58;1138546;-78
2024/01/07 02:05:32;;;;;;;10.20;2.83;;;;;;;-4.47;100.00;101066.66;4986576;59;1138679;-78
2024/01/07 02:10:38;;;;;;;8.83;3.37;;;;;;;-4.50;100.00;101076.58;4949197;59;1141088;-78
2024/01/07 02:15:44;;;;;;;8.37;3.37;;;;;;;-4.51;100.00;101068.84;5099347;58;1138877;-78
2024/01/07 02:20:50;;;;;;;5.17;3.40;;;;;;;-4.51;100.00;101067.11;5020726;57;1138856;-77
2024/01/07 02:25:56;;;;;;;3.97;2.80;;;;;;;-4.47;100.00;101058.92;4963307;58;1138830;-78
2024/01/07 02:31:01;;;;;;;4.37;2.50;;;;;;;-4.50;100.00;101074.42;4933314;59;1138677;-78
2024/01/07 02:36:07;;;;;;;7.53;3.23;;;;;;;-4.57;100.00;101074.89;5055817;57;1138509;-78
2024/01/07 02:41:13;;;;;;;3.55;2.52;;;;;;;-4.59;100.00;101072.78;5054712;57;1138564;-77
2024/01/07 02:46:19;;;;;;;7.87;3.50;;;;;;;-4.66;100.00;101079.69;5068543;58;1138906;-78
2024/01/07 02:51:25;;;;;;;8.43;3.57;;;;;;;-4.74;100.00;101080.19;5048638;58;1138802;-78
2024/01/07 02:56:30;;;;;;;6.70;2.37;;;;;;;-4.78;100.00;101078.92;5038397;56;1138600;-78
2024/01/07 03:01:40;;;;;;;2.50;1.73;;;;;;;-4.82;100.00;101076.78;5058801;58;1138842;-78
2024/01/07 03:06:43;;;;;;;3.77;2.17;;;;;;;-4.88;100.00;101086.27;5035387;58;1138647;-79
2024/01/07 03:11:49;;;;;;;2.83;2.30;;;;;;;-4.91;100.00;101088.89;5061936;57;1138573;-78
2024/01/07 03:16:54;;;;;;;5.67;3.10;;;;;;;-4.96;100.00;101094.92;5080527;58;1138569;-78
2024/01/07 03:22:00;;;;;;;10.57;3.83;;;;;;;-5.03;100.00;101094.51;5044302;58;1139205;-79
2024/01/07 03:27:06;;;;;;;5.27;2.73;;;;;;;-5.11;100.00;101088.55;4996188;59;1140828;-78
2024/01/07 03:32:11;;;;;;;7.03;2.77;;;;;;;-5.16;100.00;101086.84;4994106;59;1138938;-78
2024/01/07 03:37:17;;;;;;;2.03;1.83;;;;;;;-5.22;100.00;101083.88;5077388;57;1139133;-78
2024/01/07 03:42:22;;;;;;;5.67;2.70;;;;;;;-5.22;100.00;101083.02;5075465;57;1138799;-78
2024/01/07 03:47:28;;;;;;;4.13;2.67;;;;;;;-5.27;100.00;101093.77;5073959;58;1138806;-78
2024/01/07 03:52:35;;;;;;;7.17;3.23;;;;;;;-5.29;100.00;101103.23;5035979;57;1139335;-78
2024/01/07 03:57:41;;;;;;;4.97;3.27;;;;;;;-5.25;100.00;101109.67;5075195;58;1139203;-78
2024/01/07 04:02:46;;;;;;;4.23;3.20;;;;;;;-5.24;100.00;101101.07;5021836;58;1139054;-78
2024/01/07 04:07:52;;;;;;;6.67;3.30;;;;;;;-5.25;100.00;101109.67;5037639;58;1138838;-78
2024/01/07 04:12:58;;;;;;;4.47;2.77;;;;;;;-5.25;100.00;101108.37;5093801;57;1139069;-78
2024/01/07 04:18:05;;;;;;;9.03;3.70;;;;;;;-5.27;100.00;101109.23;4993236;58;1138981;-78
2024/01/07 04:23:11;;;;;;;3.55;3.25;;;;;;;-5.29;100.00;101111.82;4948035;59;1138792;-78
2024/01/07 04:28:16;;;;;;;5.33;3.20;;;;;;;-5.34;100.00;101116.98;5017454;58;1139221;-78
2024/01/07 04:33:22;;;;;;;8.17;3.70;;;;;;;-5.33;100.00;101125.14;5048924;57;1139279;-78
2024/01/07 04:38:27;;;;;;;10.37;4.20;;;;;;;-5.32;100.00;101127.30;5055653;57;1139340;-77
2024/01/07 04:43:36;;;;;;;5.67;3.20;;;;;;;-5.30;100.00;101134.59;5052616;58;1141524;-78
2024/01/07 04:48:42;;;;;;;8.63;4.23;;;;;;;-5.33;100.00;101130.73;5090769;58;1139083;-78
2024/01/07 04:53:49;;;;;;;10.30;3.95;;;;;;;-5.31;100.00;101142.76;5076251;58;1138985;-78
2024/01/07 04:58:54;;;;;;;5.60;3.90;;;;;;;-5.35;100.00;101135.89;5006347;57;1140843;-77
2024/01/07 05:04:00;;;;;;;7.87;4.67;;;;;;;-5.38;100.00;101146.66;5081101;57;1139329;-78
2024/01/07 05:09:05;;;;;;;14.23;5.50;;;;;;;-5.47;100.00;101156.97;5054466;58;1138951;-77
2024/01/07 05:14:12;;;;;;;9.45;4.75;;;;;;;-5.51;100.00;101161.73;5050369;58;1140594;-78
2024/01/07 05:19:18;;;;;;;10.80;5.33;;;;;;;-5.59;100.00;101168.17;5018355;58;1138825;-78
2024/01/07 05:24:23;;;;;;;11.20;6.17;;;;;;;-5.63;100.00;101165.16;4952862;58;1140605;-78
2024/01/07 05:29:29;;;;;;;10.27;4.77;;;;;;;-5.65;100.00;101173.31;4940346;58;1140618;-77
2024/01/07 05:34:35;;;;;;;12.00;4.73;;;;;;;-5.69;100.00;101183.22;5003090;58;1141263;-78
2024/01/07 05:39:40;;;;;;;8.23;5.00;;;;;;;-5.78;100.00;101190.94;5092657;58;1141262;-77
2024/01/07 05:44:46;;;;;;;11.63;4.83;;;;;;;-5.88;100.00;101195.70;5015821;58;1139117;-78
2024/01/07 05:49:52;;;;;;;7.93;5.13;;;;;;;-5.92;100.00;101199.13;5019626;58;1141217;-77
2024/01/07 05:54:57;;;;;;;10.03;5.80;;;;;;;-5.97;100.00;101203.01;5038887;58;1140944;-77
2024/01/07 06:00:03;;;;;;;11.80;5.80;;;;;;;-6.01;100.00;101206.86;5031272;58;1142876;-78
2024/01/07 06:05:10;;;;;;;10.10;4.93;;;;;;;-6.09;100.00;101219.28;5016342;57;1142908;-77
2024/01/07 06:10:16;;;;;;;7.33;4.87;;;;;;;-6.07;100.00;101215.00;5054190;58;1143285;-78
2024/01/07 06:15:22;;;;;;;10.10;4.90;;;;;;;-6.04;100.00;101216.72;4946950;59;1138535;-77
2024/01/07 06:20:28;;;;;;;10.40;5.17;;;;;;;-6.01;100.00;101218.02;4966374;59;1142539;-77
2024/01/07 06:25:34;;;;;;;11.05;4.95;;;;;;;-6.03;100.00;101221.02;4973314;58;1140713;-77
2024/01/07 06:30:40;;;;;;;12.23;5.20;;;;;;;-5.99;100.00;101221.88;5004426;59;1140621;-78
2024/01/07 06:35:45;;;;;;;9.83;5.40;;;;;;;-5.93;100.00;101225.73;5028113;58;1140522;-77
2024/01/07 06:40:51;;;;;;;8.13;4.45;;;;;;;-5.89;100.00;101220.59;5044689;57;1139274;-77
2024/01/07 06:45:56;;;;;;;17.93;5.10;;;;;;;-5.83;100.00;101221.87;5049134;58;1139256;-78
2024/01/07 06:51:02;;;;;;;11.27;4.67;;;;;;;-5.87;100.00;101225.29;5056182;58;1141237;-77
2024/01/07 06:56:08;;;;;;;9.97;4.87;;;;;;;-5.86;100.00;101238.60;5016542;58;1141361;-77
2024/01/07 07:01:14;;;;;;;9.40;5.10;;;;;;;-5.90;100.00;101239.48;5040773;58;1138578;-77
2024/01/07 07:06:19;;;;;;;9.13;4.20;;;;;;;-5.86;100.00;101236.45;4987583;57;1139424;-77
2024/01/07 07:11:25;;;;;;;9.37;5.30;;;;;;;-5.82;100.00;101244.20;4895032;59;1138885;-77
2024/01/07 07:16:30;;;;;;;9.55;4.87;;;;;;;-5.76;100.00;101253.19;4970028;58;1139270;-77
2024/01/07 07:21:36;;;;;;;11.10;6.40;;;;;;;-5.72;100.00;101253.63;4865479;58;1139101;-78
2024/01/07 07:26:42;;;;;;;11.20;5.07;;;;;;;-5.67;100.00;101254.50;4963257;57;1141238;-78
2024/01/07 07:31:48;;;;;;;9.47;4.43;;;;;;;-5.58;100.00;101257.50;5128744;57;1141110;-77
2024/01/07 07:36:55;;;;;;;12.07;4.73;;;;;;;-5.56;100.00;101251.92;5038217;56;1138393;-77
2024/01/07 07:42:01;;;;;;;11.10;5.73;;;;;;;-5.55;100.00;101251.06;5039755;57;1141330;-77
2024/01/07 07:47:07;;;;;;;10.27;5.33;;;;;;;-5.55;100.00;101260.52;5086319;57;1140472;-78
2024/01/07 07:52:14;;;;;;;10.63;5.53;;;;;;;-5.49;100.00;101260.06;4958217;57;1140448;-77
2024/01/07 07:57:24;;;;;;;12.13;5.77;;;;;;;-5.42;100.00;101268.23;4981010;59;1140890;-77
2024/01/07 08:02:30;;;;;;;9.40;5.33;;;;;;;-5.39;100.00;101273.83;4933155;58;1140747;-77
2024/01/07 08:07:35;;;;;;;7.37;3.97;;;;;;;-5.34;100.00;101263.92;4999824;58;1138498;-78
2024/01/07 08:12:41;;;;;;;9.10;5.15;;;;;;;-5.25;100.00;101262.20;4951943;57;1138995;-78
2024/01/07 08:17:46;;;;;;;8.90;4.53;;;;;;;-5.18;100.00;101260.89;5031339;57;1138744;-77
2024/01/07 08:22:52;;;;;;;5.15;2.83;;;;;;;-5.16;100.00;101270.77;5035166;57;1138688;-77
2024/01/07 08:27:58;;;;;;;9.10;4.17;;;;;;;-5.20;100.00;101278.11;5078031;57;1139021;-77
2024/01/07 08:33:03;;;;;;;11.25;5.20;;;;;;;-5.23;100.00;101281.97;5017830;57;1138760;-78
2024/01/07 08:38:09;;;;;;;6.10;2.90;;;;;;;-5.20;100.00;101291.44;4971374;57;1140442;-77
2024/01/07 08:43:15;;;;;;;10.53;4.97;;;;;;;-5.18;100.00;101306.44;4957608;57;1138946;-77
2024/01/07 08:48:20;;;;;;;8.00;4.87;;;;;;;-5.24;100.00;101302.59;5053145;57;1140536;-78
2024/01/07 08:53:26;;;;;;;8.73;4.20;;;;;;;-5.24;100.00;101305.17;4922914;56;1138433;-77
2024/01/07 08:58:31;;;;;;;10.60;4.83;;;;;;;-5.24;100.00;101309.91;4954201;57;1139127;-77
2024/01/07 09:03:37;;;;;;;13.37;6.20;;;;;;;-5.18;100.00;101307.30;4886847;58;1141247;-78
2024/01/07 09:08:43;;;;;;;12.13;6.58;;;;;;;-5.13;100.00;101318.48;4886867;58;1140864;-77
2024/01/07 09:13:50;;;;;;;9.63;4.90;;;;;;;-5.06;100.00;101313.77;4892135;57;1140809;-76
2024/01/07 09:18:55;;;;;;;7.33;4.47;;;;;;;-5.00;100.00;101326.63;4874275;58;1138950;-77
2024/01/07 09:24:01;;;;;;;12.55;6.20;;;;;;;-5.00;100.00;101328.35;4916992;57;1139061;-76
2024/01/07 09:29:06;;;;;;;8.83;3.92;;;;;;;-5.04;100.00;101319.75;4886083;57;1140807;-76
2024/01/07 09:34:12;;;;;;;9.63;4.90;;;;;;;-5.06;100.00;101333.11;4947515;55;1138832;-75
2024/01/07 09:39:17;;;;;;;9.00;4.08;;;;;;;-5.12;100.00;101333.53;4949054;58;1138864;-77
2024/01/07 09:44:23;;;;;;;18.47;8.80;;;;;;;-5.11;100.00;101330.09;4984031;57;1139135;-79
2024/01/07 09:49:29;;;;;;;16.30;7.63;;;;;;;-5.12;100.00;101336.97;4989144;58;1140936;-77
2024/01/07 09:54:42;;;;;;;12.78;6.33;;;;;;;-5.14;100.00;101336.53;4972006;55;1140705;-78
2024/01/07 09:59:44;;;;;;;12.63;5.70;;;;;;;-5.09;100.00;101325.80;4858099;58;1140694;-75
2024/01/07 10:04:50;;;;;;;14.17;6.07;;;;;;;-5.03;100.00;101336.09;4971872;56;1140953;-77
2024/01/07 10:09:56;;;;;;;19.40;7.65;;;;;;;-4.91;100.00;101332.23;4951777;57;1140800;-75
2024/01/07 10:15:02;;;;;;;15.67;6.27;;;;;;;-4.85;100.00;101328.76;4976340;56;1140941;-80
2024/01/07 10:20:12;;;;;;;21.90;8.83;;;;;;;-4.77;100.00;101333.48;4983903;57;1140783;-80
2024/01/07 10:25:19;;;;;;;15.63;5.97;;;;;;;-4.79;100.00;101330.91;4980167;56;1140785;-77
2024/01/07 10:30:24;;;;;;;13.87;5.57;;;;;;;-4.88;100.00;101344.23;5005106;57;1141167;-78
2024/01/07 10:35:36;;;;;;;14.05;6.50;;;;;;;-5.02;100.00;101325.77;4973824;56;1140779;-77
2024/01/07 10:40:44;;;;;;;21.87;9.33;;;;;;;-5.11;100.00;101330.09;4960205;57;1140524;-79
2024/01/07 10:45:50;;;;;;;13.90;6.67;;;;;;;-5.14;100.00;101324.50;4893802;58;1141116;-80
2024/01/07 10:51:00;;;;;;;14.25;6.45;;;;;;;-5.13;100.00;101322.78;4912819;58;1141086;-78
2024/01/07 10:56:08;;;;;;;10.60;4.87;;;;;;;-5.12;100.00;101328.37;4847330;58;1140840;-80
2024/01/07 11:01:14;;;;;;;11.67;6.60;;;;;;;-5.19;100.00;101315.89;4863435;58;1141055;-79
2024/01/07 11:06:58;;;;;;;12.30;5.97;;;;;;;-5.18;100.00;101326.64;4889832;57;1140863;-79
2024/01/07 11:12:04;;;;;;;12.93;5.90;;;;;;;-5.11;100.00;101332.67;4884916;58;1140721;-80
2024/01/07 11:17:10;;;;;;;16.97;6.47;;;;;;;-5.03;100.00;101337.38;4902173;58;1140665;-79
2024/01/07 11:22:29;;;;;;;11.87;5.03;;;;;;;-5.07;100.00;101342.13;4921721;57;1140689;-80
2024/01/07 11:27:35;;;;;;;10.73;5.23;;;;;;;-5.00;100.00;101343.40;4979299;57;1140933;-79
2024/01/07 11:32:41;;;;;;;15.53;7.78;;;;;;;-5.06;100.00;101330.53;4961404;57;1141119;-76
2024/01/07 11:37:47;;;;;;;12.77;5.53;;;;;;;-5.10;100.00;101333.96;4989048;57;1140970;-77
2024/01/07 11:42:52;;;;;;;12.67;6.53;;;;;;;-5.09;100.00;101335.69;4958273;56;1141194;-78
2024/01/07 11:47:58;;;;;;;13.83;6.10;;;;;;;-5.01;100.00;101344.26;4978879;55;1140925;-78
2024/01/07 11:53:04;;;;;;;21.57;8.30;;;;;;;-5.01;100.00;101348.55;5003131;57;1141016;-76
2024/01/07 11:58:10;;;;;;;18.10;6.97;;;;;;;-4.92;100.00;101343.41;4972734;56;1140794;-77
2024/01/07 12:03:15;;;;;;;18.43;8.70;;;;;;;-4.78;100.00;101336.93;4985623;57;1140624;-79
2024/01/07 12:08:21;;;;;;;15.33;6.73;;;;;;;-4.45;100.00;101340.72;4938418;57;1141630;-76
2024/01/07 12:13:27;;;;;;;17.27;8.50;;;;;;;-4.07;100.00;101319.89;4963849;56;1140676;-77
2024/01/07 12:18:33;;;;;;;25.13;8.80;;;;;;;-3.83;100.00;101320.20;4946083;56;1141119;-70
2024/01/07 12:23:39;;;;;;;21.70;9.97;;;;;;;-3.37;100.00;101327.21;4927660;57;1140950;-73
2024/01/07 12:28:45;;;;;;;21.70;9.43;;;;;;;-3.04;100.00;101327.34;4995382;57;1140886;-71
2024/01/07 12:33:53;;;;;;;19.90;9.00;;;;;;;-2.61;100.00;101332.98;4929616;57;1229640;-71
2024/01/07 12:38:59;;;;;;;24.10;11.03;;;;;;;-2.31;100.00;101333.50;4813968;57;1141643;-71
2024/01/07 12:44:05;;;;;;;18.87;8.60;;;;;;;-2.09;100.00;101327.16;4782605;58;1143048;-79
2024/01/07 12:49:10;;;;;;;16.77;7.77;;;;;;;-2.01;100.00;101334.41;4767903;58;1140877;-77
2024/01/07 12:54:16;;;;;;;10.43;5.03;;;;;;;-1.93;100.00;101331.27;4820786;57;1141319;-77
2024/01/07 12:59:21;;;;;;;13.03;6.47;;;;;;;-2.19;100.00;101329.03;4961284;57;1140851;-77
2024/01/07 13:04:27;;;;;;;17.50;7.37;;;;;;;-2.94;100.00;101340.64;4929722;57;1141085;-77
2024/01/07 13:09:33;;;;;;;30.67;12.73;;;;;;;-3.47;100.00;101343.64;4970457;56;1140868;-76
2024/01/07 13:14:39;;;;;;;21.07;9.90;;;;;;;-3.67;100.00;101344.23;4968000;56;1143101;-77
2024/01/07 13:19:45;;;;;;;16.80;7.33;;;;;;;-3.53;100.00;101350.60;4965655;57;1140855;-76
2024/01/07 13:24:50;;;;;;;36.00;14.40;;;;;;;-3.34;100.00;101353.45;4924087;56;1140487;-77
2024/01/07 13:29:56;;;;;;;29.83;11.10;;;;;;;-3.25;100.00;101358.58;4943628;57;1142968;-79
2024/01/07 13:35:01;;;;;;;25.50;9.60;;;;;;;-3.35;100.00;101369.84;4957965;56;1143274;-75
2024/01/07 13:40:10;;;;;;;18.67;7.55;;;;;;;-3.61;100.00;101368.73;4960675;57;1141074;-79
2024/01/07 13:45:16;;;;;;;39.27;16.25;;;;;;;-4.08;100.00;101379.30;4960393;56;1140905;-74
2024/01/07 13:50:22;;;;;;;46.23;19.33;;;;;;;-4.46;100.00;101382.89;4951163;57;1142719;-74
2024/01/07 13:55:28;;;;;;;31.50;12.03;;;;;;;-4.66;100.00;101385.50;4926433;56;1142938;-73
2024/01/07 14:00:33;;;;;;;31.00;13.70;;;;;;;-4.87;100.00;101389.38;4977929;57;1142807;-69
2024/01/07 14:05:39;;;;;;;27.17;12.23;;;;;;;-5.12;100.00;101385.96;4899819;57;1143140;-70
2024/01/07 14:10:45;;;;;;;21.43;10.27;;;;;;;-5.33;100.00;101388.09;4967930;56;1142984;-74
2024/01/07 14:15:51;;;;;;;24.57;10.87;;;;;;;-5.64;100.00;101386.31;4939884;57;1142900;-70
2024/01/07 14:20:56;;;;;;;24.50;10.60;;;;;;;-5.64;100.00;101386.31;4955768;56;1142776;-74
2024/01/07 14:26:03;;;;;;;23.50;10.10;;;;;;;-5.74;100.00;101403.91;4946664;57;1143182;-74
2024/01/07 14:31:09;;;;;;;36.33;11.70;;;;;;;-5.77;100.00;101409.04;4893591;57;1142663;-71
2024/01/07 14:36:18;;;;;;;31.43;11.70;;;;;;;-5.86;100.00;101406.02;4979202;57;1143120;-74
2024/01/07 14:41:24;;;;;;;30.53;12.57;;;;;;;-5.92;100.00;101407.30;4933038;56;1143220;-73
2024/01/07 14:46:29;;;;;;;36.17;14.63;;;;;;;-5.97;100.00;101401.73;4865198;58;1143060;-72
2024/01/07 14:51:35;;;;;;;22.30;9.73;;;;;;;-6.01;100.00;101404.71;4772910;58;1142981;-71
2024/01/07 14:56:40;;;;;;;42.00;14.65;;;;;;;-6.05;100.00;101405.54;4960263;56;1140987;-73
2024/01/07 15:01:46;;;;;;;34.60;10.33;;;;;;;-6.21;100.00;101411.47;4958699;56;1142939;-70
2024/01/07 15:06:52;;;;;;;35.60;13.83;;;;;;;-6.32;100.00;101404.99;4935023;57;1143332;-71
2024/01/07 15:11:58;;;;;;;26.70;9.33;;;;;;;-6.40;100.00;101415.23;4934049;55;1142903;-72
2024/01/07 15:17:04;;;;;;;26.42;10.65;;;;;;;-6.42;100.00;101419.53;4934085;57;1141000;-71
2024/01/07 15:22:10;;;;;;;29.17;11.53;;;;;;;-6.49;100.00;101424.62;4836083;58;1142848;-71
2024/01/07 15:27:15;;;;;;;26.50;11.67;;;;;;;-6.55;100.00;101424.14;4879757;57;1142781;-72
2024/01/07 15:32:21;;;;;;;23.97;10.27;;;;;;;-6.61;100.00;101435.70;4913570;57;1143275;-73
2024/01/07 15:37:27;;;;;;;20.73;9.50;;;;;;;-6.71;100.00;101444.59;4874325;57;1142759;-74
2024/01/07 15:42:32;;;;;;;20.80;8.67;;;;;;;-6.80;100.00;101442.41;4938700;55;1140843;-72
2024/01/07 15:47:39;;;;;;;22.93;9.33;;;;;;;-6.84;100.00;101445.80;4966725;57;1140918;-71
2024/01/07 15:52:47;;;;;;;24.33;9.23;;;;;;;-6.89;100.00;101455.62;4956784;56;1140829;-72
2024/01/07 15:57:51;;;;;;;20.83;8.90;;;;;;;-7.01;100.00;101461.92;4937163;56;1140926;-72
2024/01/07 16:02:59;;;;;;;25.40;9.73;;;;;;;-7.05;100.00;101460.20;4942571;57;1140824;-69
2024/01/07 16:08:05;;;;;;;37.83;10.38;;;;;;;-7.16;100.00;101464.80;4958647;56;1141032;-70
2024/01/07 16:13:10;;;;;;;28.57;9.90;;;;;;;-7.19;100.00;101476.36;4885197;57;1143108;-71
2024/01/07 16:18:16;;;;;;;32.73;11.63;;;;;;;-7.32;100.00;101479.62;4880594;57;1140910;-72
2024/01/07 16:23:24;;;;;;;25.53;10.70;;;;;;;-7.40;100.00;101489.39;4917708;57;1142942;-72
2024/01/07 16:28:30;;;;;;;33.70;13.37;;;;;;;-7.48;100.00;101480.30;4950779;57;1143079;-69
2024/01/07 16:33:35;;;;;;;28.07;10.27;;;;;;;-7.52;100.00;101483.28;4930920;56;1142874;-72
2024/01/07 16:38:41;;;;;;;18.75;8.45;;;;;;;-7.45;100.00;101494.05;4935579;57;1142997;-72
2024/01/07 16:43:46;;;;;;;35.93;11.23;;;;;;;-7.53;100.00;101499.53;4927218;57;1140908;-70
2024/01/07 16:48:52;;;;;;;64.03;20.93;;;;;;;-7.54;100.00;101500.80;4797723;59;1142924;-72
2024/01/07 16:53:58;;;;;;;103.50;28.60;;;;;;;-7.49;100.00;101506.44;4842599;57;1142876;-71
2024/01/07 16:59:04;;;;;;;59.93;20.67;;;;;;;-7.44;100.00;101509.04;4735636;59;1145393;-69
2024/01/07 17:04:09;;;;;;;32.93;13.27;;;;;;;-7.42;100.00;101522.77;4883144;56;1142946;-72
2024/01/07 17:09:17;;;;;;;35.53;13.93;;;;;;;-7.40;100.00;101529.22;4889134;56;1142985;-82
2024/01/07 17:14:22;;;;;;;63.43;22.30;;;;;;;-7.41;100.00;101530.06;4838487;57;1142717;-80
2024/01/07 17:19:28;;;;;;;32.27;11.40;;;;;;;-7.48;100.00;101540.67;4811029;57;1142802;-80
2024/01/07 17:24:33;;;;;;;41.30;11.93;;;;;;;-7.54;100.00;101550.89;4840579;57;1142907;-73
2024/01/07 17:29:39;;;;;;;38.77;13.50;;;;;;;-7.55;100.00;101552.59;4794647;57;1142928;-77
2024/01/07 17:34:45;;;;;;;30.13;12.73;;;;;;;-7.56;100.00;101561.14;4923786;57;1142782;-82
2024/01/07 17:39:50;;;;;;;14.07;7.27;;;;;;;-7.54;100.00;101561.16;4907260;58;1143095;-80
2024/01/07 17:44:56;;;;;;;16.73;8.10;;;;;;;-7.61;100.00;101561.49;4902791;57;1141067;-82
2024/01/07 17:50:02;;;;;;;20.97;10.40;;;;;;;-7.77;100.00;101574.11;4885288;57;1143055;-80
2024/01/07 17:55:09;;;;;;;19.10;8.80;;;;;;;-7.84;100.00;101577.03;4928224;58;1144922;-75
2024/01/07 18:00:16;;;;;;;26.00;10.40;;;;;;;-7.82;100.00;101579.20;4935123;58;1141130;-78
2024/01/07 18:05:22;;;;;;;26.53;9.77;;;;;;;-7.82;100.00;101575.34;4919593;57;1143582;-74
2024/01/07 18:10:28;;;;;;;25.77;11.60;;;;;;;-7.77;100.00;101585.23;4879378;58;1142919;-77
2024/01/07 18:15:33;;;;;;;20.97;9.50;;;;;;;-7.74;100.00;101586.58;4830342;58;1145351;-75
2024/01/07 18:20:40;;;;;;;23.67;10.30;;;;;;;-7.70;100.00;101587.06;4750427;59;1142927;-75
2024/01/07 18:25:48;;;;;;;20.53;8.67;;;;;;;-7.70;100.00;101590.92;4805734;59;1145271;-79
2024/01/07 18:30:53;;;;;;;24.77;9.63;;;;;;;-7.73;100.00;101597.71;4928273;57;1140846;-78
2024/01/07 18:36:01;;;;;;;27.73;10.33;;;;;;;-7.71;100.00;101602.45;4921928;57;1140921;-80
2024/01/07 18:41:07;;;;;;;27.60;13.80;;;;;;;-7.81;100.00;101602.33;4904873;57;1145008;-78
2024/01/07 18:46:12;;;;;;;31.25;10.68;;;;;;;-7.85;100.00;101599.27;4904714;57;1145152;-77
2024/01/07 18:51:18;;;;;;;31.80;11.30;;;;;;;-7.91;100.00;101610.72;4938275;57;1145460;-80
2024/01/07 18:56:24;;;;;;;28.50;12.13;;;;;;;-7.94;100.00;101608.52;4885269;57;1144991;-75
2024/01/07 19:01:29;;;;;;;22.98;8.95;;;;;;;-7.96;100.00;101618.80;4905176;57;1144876;-77
2024/01/07 19:06:36;;;;;;;22.60;10.43;;;;;;;-7.90;100.00;101623.14;4969103;57;1142899;-76
2024/01/07 19:11:43;;;;;;;19.20;7.40;;;;;;;-7.94;100.00;101622.22;4980115;57;1145153;-81
2024/01/07 19:16:49;;;;;;;28.07;10.17;;;;;;;-7.92;100.00;101624.81;4972451;57;1142983;-77
2024/01/07 19:21:55;;;;;;;29.10;13.97;;;;;;;-7.97;100.00;101626.05;4897457;58;1144831;-79
2024/01/07 19:27:00;;;;;;;30.93;14.53;;;;;;;-8.03;100.00;101630.21;4901570;58;1144982;-78
2024/01/07 19:32:06;;;;;;;16.17;8.23;;;;;;;-8.18;100.00;101647.09;4879594;58;1144852;-80
2024/01/07 19:37:15;;;;;;;26.73;11.77;;;;;;;-8.32;100.00;101655.43;4874069;57;1142897;-77
2024/01/07 19:42:21;;;;;;;19.70;8.90;;;;;;;-8.38;100.00;101659.16;4933541;58;1144770;-77
2024/01/07 19:47:27;;;;;;;16.77;8.70;;;;;;;-8.34;100.00;101669.92;4988390;56;1143209;-80
2024/01/07 19:52:35;;;;;;;27.40;10.63;;;;;;;-8.45;100.00;101679.14;4940394;58;1143078;-77
2024/01/07 19:57:40;;;;;;;24.23;10.20;;;;;;;-8.61;100.00;101683.12;4901976;57;1145120;-81
2024/01/07 20:02:50;;;;;;;25.10;7.73;;;;;;;-8.70;100.00;101690.20;4888908;57;1145416;-80
2024/01/07 20:07:56;;;;;;;24.20;10.67;;;;;;;-8.72;100.00;101688.47;4755461;59;1143030;-79
2024/01/07 20:13:02;;;;;;;21.45;9.15;;;;;;;-8.77;100.00;101699.05;4873830;57;1144927;-80
2024/01/07 20:18:08;;;;;;;24.30;9.80;;;;;;;-8.81;100.00;101691.70;4797077;58;1142969;-78
2024/01/07 20:23:14;;;;;;;20.30;9.40;;;;;;;-8.89;100.00;101708.64;4898531;58;1142632;-80
2024/01/07 20:28:21;;;;;;;21.60;8.38;;;;;;;-8.91;100.00;101706.46;4907407;59;1143245;-80
2024/01/07 20:33:26;;;;;;;25.87;9.93;;;;;;;-8.81;100.00;101714.77;4975099;57;1143130;-78
2024/01/07 20:38:32;;;;;;;26.50;11.23;;;;;;;-8.83;100.00;101714.29;4909991;57;1143023;-79
2024/01/07 20:43:45;;;;;;;24.12;8.98;;;;;;;-8.83;100.00;101721.98;4861038;57;1144704;-79
2024/01/07 20:48:51;;;;;;;32.98;14.75;;;;;;;-8.83;100.00;101720.28;4880818;56;1142976;-79
2024/01/07 20:53:57;;;;;;;35.57;13.00;;;;;;;-8.83;100.00;101733.52;4952881;57;1144879;-78
2024/01/07 20:59:03;;;;;;;21.25;8.73;;;;;;;-8.81;100.00;101735.28;4928007;58;1145229;-79
2024/01/07 21:04:09;;;;;;;27.27;9.33;;;;;;;-8.84;100.00;101736.49;4943101;57;1142799;-79
2024/01/07 21:09:14;;;;;;;25.32;9.30;;;;;;;-8.94;100.00;101737.15;4960152;58;1143266;-79
2024/01/07 21:14:20;;;;;;;38.17;13.27;;;;;;;-8.99;100.00;101740.02;4848168;58;1143135;-79
2024/01/07 21:19:26;;;;;;;31.50;13.10;;;;;;;-9.02;100.00;101747.66;4895378;58;1145604;-79
2024/01/07 21:24:33;;;;;;;32.20;13.67;;;;;;;-9.12;100.00;101755.55;4910545;58;1145007;-78
2024/01/07 21:29:39;;;;;;;27.63;12.20;;;;;;;-9.18;100.00;101764.81;4881148;58;1145127;-78
2024/01/07 21:34:45;;;;;;;47.77;15.60;;;;;;;-9.40;100.00;101764.73;4952791;57;1145587;-79
2024/01/07 21:39:56;;;;;;;52.43;15.70;;;;;;;-9.45;100.00;101768.45;4973760;57;1145147;-79
2024/01/07 21:45:02;;;;;;;36.83;14.10;;;;;;;-9.47;100.00;101766.27;4856070;58;1145021;-78
2024/01/07 21:50:08;;;;;;;27.50;11.63;;;;;;;-9.50;100.00;101777.73;4923460;56;1144860;-80
2024/01/07 21:55:14;;;;;;;34.90;11.33;;;;;;;-9.57;100.00;101783.94;4941861;58;1144816;-78
2024/01/07 22:00:20;;;;;;;28.75;11.22;;;;;;;-9.63;100.00;101778.28;4962528;56;1145184;-80
2024/01/07 22:05:25;;;;;;;33.78;12.68;;;;;;;-9.69;100.00;101786.66;4983133;56;1144999;-80
2024/01/07 22:10:32;;;;;;;42.55;15.13;;;;;;;-9.74;100.00;101792.48;4941552;57;1145017;-78
2024/01/07 22:15:38;;;;;;;36.63;12.00;;;;;;;-9.77;100.00;101795.83;4963212;57;1145050;-77
2024/01/07 22:20:43;;;;;;;33.10;11.48;;;;;;;-9.76;100.00;101797.97;4917737;57;1145474;-78
2024/01/07 22:25:49;;;;;;;33.40;13.08;;;;;;;-9.89;100.00;101802.33;4982963;57;1145212;-79
2024/01/07 22:30:54;;;;;;;34.87;13.60;;;;;;;-9.99;100.00;101805.94;4949708;57;1144595;-78
2024/01/07 22:36:00;;;;;;;32.57;12.13;;;;;;;-10.12;100.00;101808.14;4951317;56;1144888;-77
2024/01/07 22:41:06;;;;;;;44.17;15.83;;;;;;;-10.09;100.00;101813.34;5025221;56;1147367;-77